EKYT/AAL METAR and TAF weather

Enter ICAO airport designator
Station Type Date Time Source
EKYT METAR 2022/09/26 09:20 UTC NOAA

EKYT 260920Z AUTO 16013KT 8000 -RA BKN011/// OVC067/// 11/10 Q0993


Station Type Date Time Source
EKYT Decoded METAR 2022/09/26 09:20 UTC NOAA

Aalborg, Denmark (EKYT) 57-06N 009-51E 13M
Sep 26, 2022 - 05:20 AM EDT / 2022.09.26 0920 UTC
Wind: from the SSE (160 degrees) at 15 MPH (13 KT):0
Visibility: 4 mile(s):0
Sky conditions: overcast
Weather: light rain
Temperature: 51 F (11 C)
Dew Point: 50 F (10 C)
Relative Humidity: 93%
Pressure (altimeter): 29.32 in. Hg (0993 hPa)
ob: EKYT 260920Z AUTO 16013KT 8000 -RA BKN011/// OVC067/// 11/10 Q0993
cycle: 9

Station Type Date Time Source
EKYT TAF 2022/09/26 09:31 UTC NOAA

TAF EKYT 260814Z 2609/2709 17012KT 8000 -RA BKN020
TEMPO 2609/2616 17015G25KT 3000 RA BKN010
TEMPO 2616/2624 3000 RA BKN008
TEMPO 2700/2706 2000 BR BKN004
BECMG 2704/2707 27005KT
TEMPO 2706/2709 4000 RA BKN012

Example: see airport list